createdAt,value
2023-04-28T00:01:45.333Z,42.57
2023-04-28T00:04:12.742Z,42.31
2023-04-28T00:06:41.175Z,42.69
2023-04-28T00:09:11.227Z,42.47
2023-04-28T00:11:38.750Z,43.01
2023-04-28T00:14:06.077Z,42.73
2023-04-28T00:16:34.468Z,42.90
2023-04-28T00:19:01.330Z,43.22
2023-04-28T00:21:28.798Z,43.55
2023-04-28T00:23:55.923Z,43.53
2023-04-28T00:26:22.620Z,43.63
2023-04-28T00:28:50.539Z,43.37
2023-04-28T00:31:17.268Z,43.47
2023-04-28T00:33:44.610Z,43.56
2023-04-28T00:36:11.786Z,43.25
2023-04-28T00:38:38.728Z,43.29
2023-04-28T00:41:06.682Z,43.68
2023-04-28T00:43:52.893Z,43.60
2023-04-28T00:46:30.977Z,43.77
2023-04-28T00:48:58.102Z,43.68
2023-04-28T00:51:25.350Z,43.50
2023-04-28T00:53:52.175Z,43.94
2023-04-28T00:56:19.705Z,43.83
2023-04-28T00:58:46.637Z,43.79
2023-04-28T01:01:15.453Z,44.24
2023-04-28T01:03:42.360Z,44.25
2023-04-28T01:06:09.955Z,44.18
2023-04-28T01:08:38.341Z,44.00
2023-04-28T01:11:05.503Z,44.09
2023-04-28T01:13:32.543Z,44.33
2023-04-28T01:15:59.579Z,44.43
2023-04-28T01:18:26.357Z,44.76
2023-04-28T01:20:53.137Z,44.73
2023-04-28T01:23:19.831Z,44.65
2023-04-28T01:25:46.521Z,44.44
2023-04-28T01:28:13.251Z,44.56
2023-04-28T01:30:39.949Z,44.42
2023-04-28T01:33:06.922Z,45.01
2023-04-28T01:35:34.269Z,44.46
2023-04-28T01:38:01.388Z,44.74
2023-04-28T01:40:28.352Z,44.95
2023-04-28T01:42:55.052Z,44.95
2023-04-28T01:45:21.858Z,45.30
2023-04-28T01:47:48.574Z,45.03
2023-04-28T01:50:15.433Z,45.08
2023-04-28T01:52:42.126Z,45.37
2023-04-28T01:55:09.013Z,45.46
2023-04-28T01:57:36.219Z,45.43
2023-04-28T02:00:05.102Z,45.30
2023-04-28T02:02:31.948Z,45.33
2023-04-28T02:04:58.759Z,45.81
2023-04-28T02:07:25.448Z,45.72
2023-04-28T02:09:52.086Z,45.67
2023-04-28T02:12:18.809Z,45.79
2023-04-28T02:14:46.151Z,45.56
2023-04-28T02:17:13.132Z,45.84
2023-04-28T02:19:39.966Z,45.58
2023-04-28T02:22:07.346Z,46.03
2023-04-28T02:24:39.500Z,45.89
2023-04-28T02:27:06.349Z,46.18
2023-04-28T02:29:33.284Z,46.46
2023-04-28T02:32:00.348Z,46.15
2023-04-28T02:34:27.194Z,46.82
2023-04-28T02:36:53.947Z,46.47
2023-04-28T02:39:22.653Z,46.40
2023-04-28T02:41:49.460Z,46.34
2023-04-28T02:44:16.532Z,46.83
2023-04-28T02:46:43.380Z,46.71
2023-04-28T02:49:10.103Z,46.82
2023-04-28T02:51:37.245Z,47.03
2023-04-28T02:54:04.584Z,47.01
2023-04-28T02:56:31.676Z,47.12
2023-04-28T02:58:58.383Z,47.30
2023-04-28T03:01:25.182Z,47.33
2023-04-28T03:03:51.955Z,47.49
2023-04-28T03:06:18.795Z,47.61
2023-04-28T03:08:45.455Z,47.79
2023-04-28T03:11:12.261Z,47.73
2023-04-28T03:13:38.924Z,47.58
2023-04-28T03:16:06.345Z,47.63
2023-04-28T03:18:33.290Z,47.96
2023-04-28T03:21:00.151Z,48.10
2023-04-28T03:23:27.209Z,47.96
2023-04-28T03:25:53.950Z,48.08
2023-04-28T03:28:20.970Z,48.16
2023-04-28T03:30:47.649Z,47.98
2023-04-28T03:33:14.316Z,48.00
2023-04-28T03:35:42.581Z,48.08
2023-04-28T03:38:09.255Z,48.44
2023-04-28T03:40:37.002Z,48.43
2023-04-28T03:43:04.952Z,48.44
2023-04-28T03:45:31.989Z,48.37
2023-04-28T03:47:58.857Z,48.63
2023-04-28T03:50:26.761Z,48.77
2023-04-28T03:52:53.731Z,48.40
2023-04-28T03:55:20.564Z,48.59
2023-04-28T03:57:47.420Z,48.71
2023-04-28T04:00:14.535Z,48.62
2023-04-28T04:02:41.259Z,48.74
2023-04-28T04:05:08.620Z,48.74
2023-04-28T04:07:35.492Z,49.14
2023-04-28T04:10:04.345Z,48.61
2023-04-28T04:12:32.256Z,49.07
2023-04-28T04:14:59.084Z,48.83
2023-04-28T04:17:25.877Z,48.63
2023-04-28T04:19:52.601Z,48.79
2023-04-28T04:22:19.365Z,48.71
2023-04-28T04:24:46.407Z,48.26
2023-04-28T04:27:13.250Z,48.46
2023-04-28T04:29:40.099Z,48.27
2023-04-28T04:32:06.825Z,48.33
2023-04-28T04:34:34.351Z,48.39
2023-04-28T04:37:01.117Z,48.44
2023-04-28T04:39:27.879Z,48.21
2023-04-28T04:41:54.556Z,47.91
2023-04-28T04:44:22.127Z,47.81
2023-04-28T04:46:48.848Z,47.52
2023-04-28T04:49:15.984Z,47.34
2023-04-28T04:51:43.277Z,47.29
2023-04-28T04:54:10.042Z,46.77
2023-04-28T04:56:37.590Z,46.90
2023-04-28T04:59:04.388Z,46.48
2023-04-28T05:01:31.124Z,46.22
2023-04-28T05:03:58.063Z,46.13
2023-04-28T05:06:25.058Z,45.53
2023-04-28T05:08:51.757Z,45.78
2023-04-28T05:11:19.050Z,45.36
2023-04-28T05:13:45.733Z,45.15
2023-04-28T05:16:13.403Z,45.15
2023-04-28T05:18:40.273Z,44.36
2023-04-28T05:21:08.291Z,44.16
2023-04-28T05:23:40.142Z,43.82
2023-04-28T05:26:07.183Z,43.22
2023-04-28T05:28:36.228Z,42.83
2023-04-28T05:31:02.971Z,42.29
2023-04-28T05:33:29.692Z,41.98
2023-04-28T05:35:56.425Z,41.57
2023-04-28T05:38:23.563Z,41.31
2023-04-28T05:40:50.378Z,40.92
2023-04-28T05:43:17.417Z,40.67
2023-04-28T05:45:44.485Z,40.45
2023-04-28T05:48:11.311Z,39.84
2023-04-28T05:50:39.112Z,39.66
2023-04-28T05:53:06.087Z,39.41
2023-04-28T05:55:36.314Z,39.04
2023-04-28T05:58:06.054Z,38.80
2023-04-28T06:00:33.316Z,38.66
2023-04-28T06:03:00.530Z,38.57
2023-04-28T06:05:27.789Z,38.26
2023-04-28T06:07:56.261Z,38.10
2023-04-28T06:10:23.777Z,37.96
2023-04-28T06:12:50.977Z,37.76
2023-04-28T06:15:17.735Z,37.42
2023-04-28T06:17:44.658Z,37.16
2023-04-28T06:20:13.960Z,36.58
2023-04-28T06:22:41.796Z,36.24
2023-04-28T06:25:08.976Z,35.91
2023-04-28T06:27:35.666Z,35.72
2023-04-28T06:30:02.409Z,35.21
2023-04-28T06:32:30.274Z,34.90
2023-04-28T06:34:58.542Z,34.66
2023-04-28T06:37:25.474Z,34.27
2023-04-28T06:39:53.287Z,33.53
2023-04-28T06:42:20.575Z,33.20
2023-04-28T06:44:47.944Z,33.12
2023-04-28T06:47:14.948Z,32.71
2023-04-28T06:49:44.048Z,32.34
2023-04-28T06:52:10.815Z,31.99
2023-04-28T06:54:38.637Z,31.72
2023-04-28T06:57:06.743Z,30.80
2023-04-28T06:59:33.809Z,29.31
2023-04-28T07:02:01.115Z,28.14
2023-04-28T07:04:27.879Z,26.15
2023-04-28T07:06:54.725Z,24.82
2023-04-28T07:09:21.556Z,23.09
2023-04-28T07:11:48.214Z,22.81
2023-04-28T07:14:15.205Z,21.81
2023-04-28T07:16:42.234Z,20.36
2023-04-28T07:19:08.976Z,19.51
2023-04-28T07:21:36.038Z,19.03
2023-04-28T07:24:02.953Z,18.40
2023-04-28T07:26:29.680Z,17.32
2023-04-28T07:28:56.353Z,17.26
2023-04-28T07:31:23.198Z,16.58
2023-04-28T07:33:50.621Z,15.94
2023-04-28T07:36:17.655Z,16.00
2023-04-28T07:38:44.911Z,15.37
2023-04-28T07:41:11.687Z,14.86
2023-04-28T07:43:38.915Z,13.95
2023-04-28T07:46:06.427Z,13.74
2023-04-28T07:48:34.070Z,13.46
2023-04-28T07:51:01.130Z,13.09
2023-04-28T07:53:28.012Z,12.63
2023-04-28T07:55:55.445Z,12.44
2023-04-28T07:58:22.173Z,12.83
2023-04-28T08:00:50.198Z,12.95
2023-04-28T08:03:17.080Z,12.86
2023-04-28T08:05:45.269Z,12.59
2023-04-28T08:08:12.316Z,12.00
2023-04-28T08:10:42.124Z,11.59
2023-04-28T08:13:09.957Z,11.48
2023-04-28T08:15:38.106Z,11.54
2023-04-28T08:18:04.969Z,10.78
2023-04-28T08:20:32.738Z,10.41
2023-04-28T08:22:59.554Z,10.52
2023-04-28T08:25:26.543Z,10.28
2023-04-28T08:27:57.304Z,9.80
2023-04-28T08:30:25.845Z,9.60
2023-04-28T08:32:53.206Z,9.59
2023-04-28T08:35:20.031Z,9.42
2023-04-28T08:37:49.494Z,9.40
2023-04-28T08:40:16.325Z,9.37
2023-04-28T08:42:46.392Z,9.66
2023-04-28T08:45:14.341Z,9.86
2023-04-28T08:47:46.188Z,9.86
2023-04-28T08:50:14.228Z,10.13
2023-04-28T08:52:42.604Z,10.83
2023-04-28T08:55:11.575Z,10.63
2023-04-28T08:57:42.859Z,10.34
2023-04-28T09:00:10.373Z,10.81
2023-04-28T09:02:42.841Z,11.43
2023-04-28T09:05:15.274Z,11.68
2023-04-28T09:07:50.731Z,12.21
2023-04-28T09:10:19.021Z,12.95
2023-04-28T09:12:46.313Z,13.02
2023-04-28T09:15:32.574Z,14.10
2023-04-28T09:18:06.582Z,14.16
2023-04-28T09:20:34.937Z,14.74
2023-04-28T09:23:22.145Z,15.75
2023-04-28T09:26:08.055Z,15.91
2023-04-28T09:28:36.691Z,15.85
2023-04-28T09:31:04.356Z,16.47
2023-04-28T09:33:31.616Z,16.93
2023-04-28T09:35:58.435Z,17.03
2023-04-28T09:38:25.621Z,17.59
2023-04-28T09:41:01.191Z,18.18
2023-04-28T09:43:32.829Z,18.45
2023-04-28T09:46:01.987Z,18.58
2023-04-28T09:48:28.866Z,18.72
2023-04-28T09:50:56.925Z,19.01
2023-04-28T09:53:24.927Z,19.40
2023-04-28T09:55:56.194Z,19.90
2023-04-28T09:58:24.650Z,19.93
2023-04-28T10:00:57.376Z,20.03
2023-04-28T10:05:58.190Z,20.08
2023-04-28T10:08:27.575Z,21.01
2023-04-28T10:10:55.704Z,20.81
2023-04-28T10:13:24.362Z,20.62
2023-04-28T10:15:55.009Z,20.49
2023-04-28T10:18:25.934Z,20.94
2023-04-28T10:21:01.107Z,21.25
2023-04-28T10:23:48.076Z,21.27
2023-04-28T10:26:20.153Z,21.52
2023-04-28T10:28:52.281Z,21.79
2023-04-28T10:31:27.285Z,21.54
2023-04-28T10:33:54.765Z,21.62
2023-04-28T10:36:55.309Z,22.15
2023-04-28T10:39:22.002Z,21.91
2023-04-28T10:41:49.277Z,22.13
2023-04-28T10:44:41.706Z,22.28
2023-04-28T10:47:10.272Z,21.94
2023-04-28T10:49:55.499Z,22.63
2023-04-28T10:52:37.911Z,23.00
2023-04-28T10:55:26.981Z,22.43
2023-04-28T10:58:15.487Z,22.64
2023-04-28T11:00:47.925Z,22.30
2023-04-28T11:03:50.831Z,22.91
2023-04-28T11:06:32.112Z,23.07
2023-04-28T11:09:04.603Z,23.12
2023-04-28T11:11:35.005Z,22.94
2023-04-28T11:14:19.681Z,22.98
2023-04-28T11:16:53.949Z,22.92
2023-04-28T11:19:27.542Z,22.54
2023-04-28T11:21:57.436Z,22.42
2023-04-28T11:24:31.512Z,22.33
2023-04-28T11:26:59.322Z,22.80
2023-04-28T11:29:39.862Z,23.20
2023-04-28T11:32:10.310Z,23.07
2023-04-28T11:34:40.380Z,22.43
2023-04-28T11:37:08.671Z,22.90
2023-04-28T11:39:35.645Z,22.46
2023-04-28T11:42:09.377Z,22.73
2023-04-28T11:44:36.157Z,22.84
2023-04-28T11:47:05.098Z,22.62
2023-04-28T11:49:36.538Z,22.58
2023-04-28T11:52:06.665Z,22.61
2023-04-28T11:54:34.010Z,22.85
2023-04-28T11:57:05.154Z,23.02
2023-04-28T11:59:35.265Z,23.12
2023-04-28T12:02:03.490Z,23.07
2023-04-28T12:04:37.930Z,22.94
2023-04-28T12:07:06.180Z,23.02
2023-04-28T12:09:34.343Z,22.90
2023-04-28T12:12:04.815Z,22.72
2023-04-28T12:14:37.680Z,22.63
2023-04-28T12:17:05.024Z,22.82
2023-04-28T12:19:44.951Z,22.61
2023-04-28T12:22:13.193Z,22.75
2023-04-28T12:24:41.112Z,22.63
2023-04-28T12:27:25.273Z,22.39
2023-04-28T12:29:52.071Z,22.69
2023-04-28T12:32:19.148Z,22.84
2023-04-28T12:34:46.949Z,22.55
2023-04-28T12:37:14.299Z,22.89
2023-04-28T12:39:43.108Z,23.02
2023-04-28T12:42:12.616Z,22.93
2023-04-28T12:44:39.390Z,22.54
2023-04-28T12:47:12.476Z,22.54
2023-04-28T12:49:39.219Z,22.76
2023-04-28T12:52:07.314Z,22.80
2023-04-28T12:54:34.229Z,22.90
2023-04-28T12:57:01.005Z,22.31
2023-04-28T12:59:29.572Z,22.44
2023-04-28T13:01:58.077Z,22.14
2023-04-28T13:04:25.124Z,22.65
2023-04-28T13:06:53.404Z,22.62
2023-04-28T13:09:21.001Z,22.31
2023-04-28T13:11:47.850Z,22.53
2023-04-28T13:14:17.002Z,22.67
2023-04-28T13:16:44.019Z,22.72
2023-04-28T13:19:14.058Z,22.37
2023-04-28T13:21:43.489Z,22.32
2023-04-28T13:24:13.176Z,22.53
2023-04-28T13:26:40.303Z,22.36
2023-04-28T13:29:08.835Z,22.05
2023-04-28T13:31:35.770Z,22.29
2023-04-28T13:34:04.179Z,22.32
2023-04-28T13:36:34.228Z,22.45
2023-04-28T13:39:02.483Z,22.09
2023-04-28T13:41:29.620Z,21.66
2023-04-28T13:43:56.345Z,21.95
2023-04-28T13:46:23.115Z,21.79
2023-04-28T13:48:50.683Z,22.11
2023-04-28T13:51:17.471Z,21.87
2023-04-28T13:53:44.118Z,21.47
2023-04-28T13:56:11.134Z,21.40
2023-04-28T13:58:37.940Z,21.26
2023-04-28T14:01:04.850Z,21.52
2023-04-28T14:03:31.716Z,21.58
2023-04-28T14:06:00.150Z,21.60
2023-04-28T14:08:28.034Z,21.35
2023-04-28T14:10:56.057Z,21.34
2023-04-28T14:13:24.711Z,21.83
2023-04-28T14:15:58.974Z,21.97
2023-04-28T14:18:27.311Z,21.65
2023-04-28T14:20:54.704Z,22.04
2023-04-28T14:23:22.746Z,22.16
2023-04-28T14:25:50.408Z,22.41
2023-04-28T14:28:17.866Z,22.49
2023-04-28T14:30:45.104Z,22.71
2023-04-28T14:33:12.022Z,22.73
2023-04-28T14:35:40.618Z,23.24
2023-04-28T14:38:09.182Z,23.21
2023-04-28T14:40:35.829Z,22.74
2023-04-28T14:43:02.558Z,23.14
2023-04-28T14:45:29.644Z,22.88
2023-04-28T14:47:57.763Z,22.90
2023-04-28T14:50:25.057Z,22.96
2023-04-28T14:52:51.913Z,22.97
2023-04-28T14:55:20.879Z,23.23
2023-04-28T14:57:48.800Z,22.85
2023-04-28T15:00:16.195Z,23.27
2023-04-28T15:02:43.699Z,22.65
2023-04-28T15:05:12.982Z,22.74
2023-04-28T15:07:41.357Z,22.85
2023-04-28T15:10:29.505Z,22.71
2023-04-28T15:13:05.478Z,22.70
2023-04-28T15:15:33.380Z,23.07
2023-04-28T15:18:04.500Z,22.87
2023-04-28T15:20:33.583Z,22.94
2023-04-28T15:25:53.593Z,23.09
2023-04-28T15:28:20.868Z,23.56
2023-04-28T15:30:48.476Z,23.58
2023-04-28T15:33:17.653Z,23.41
2023-04-28T15:35:45.294Z,23.65
2023-04-28T15:38:12.434Z,23.90
2023-04-28T15:40:40.674Z,23.95
2023-04-28T15:43:08.509Z,24.13
2023-04-28T15:45:35.630Z,23.94
2023-04-28T15:48:02.399Z,24.36
2023-04-28T15:50:29.311Z,24.03
2023-04-28T15:52:57.281Z,24.53
2023-04-28T15:55:25.877Z,24.59
2023-04-28T15:57:52.928Z,24.45
2023-04-28T16:00:20.314Z,24.30
2023-04-28T16:02:47.243Z,23.95
2023-04-28T16:05:15.406Z,23.97
2023-04-28T16:07:43.044Z,23.66
2023-04-28T16:10:11.965Z,23.60
2023-04-28T16:12:40.527Z,23.74
2023-04-28T16:15:08.871Z,24.00
2023-04-28T16:17:38.073Z,23.97
2023-04-28T16:20:07.172Z,24.09
2023-04-28T16:22:34.076Z,24.07
2023-04-28T16:25:00.948Z,24.23
2023-04-28T16:27:27.694Z,24.37
2023-04-28T16:29:54.697Z,24.19
2023-04-28T16:32:21.581Z,24.34
2023-04-28T16:34:51.274Z,24.32
2023-04-28T16:37:18.077Z,24.38
2023-04-28T16:39:45.677Z,24.35
2023-04-28T16:42:12.656Z,24.48
2023-04-28T16:44:39.388Z,24.72
2023-04-28T16:47:07.865Z,24.80
2023-04-28T16:49:34.766Z,24.77
2023-04-28T16:52:02.806Z,24.94
2023-04-28T16:54:30.664Z,25.04
2023-04-28T16:56:58.690Z,25.02
2023-04-28T16:59:33.372Z,25.29
2023-04-28T17:02:03.881Z,25.33
2023-04-28T17:04:32.340Z,25.47
2023-04-28T17:06:59.676Z,25.55
2023-04-28T17:09:27.648Z,25.71
2023-04-28T17:11:54.532Z,25.69
2023-04-28T17:14:21.302Z,25.80
2023-04-28T17:16:49.248Z,25.96
2023-04-28T17:19:16.916Z,25.89
2023-04-28T17:21:46.550Z,26.12
2023-04-28T17:24:13.509Z,26.17
2023-04-28T17:26:40.247Z,26.33
2023-04-28T17:29:06.951Z,26.41
2023-04-28T17:31:34.029Z,26.58
2023-04-28T17:34:02.179Z,26.76
2023-04-28T17:36:28.995Z,27.05
2023-04-28T17:38:55.966Z,27.14
2023-04-28T17:41:23.384Z,27.39
2023-04-28T17:43:51.890Z,27.79
2023-04-28T17:46:18.890Z,28.12
2023-04-28T17:48:46.888Z,28.50
2023-04-28T17:51:14.730Z,28.85
2023-04-28T17:53:42.504Z,29.21
2023-04-28T17:56:09.269Z,29.58
2023-04-28T17:58:36.544Z,29.71
2023-04-28T18:01:10.055Z,29.85
2023-04-28T18:03:38.772Z,30.19
2023-04-28T18:06:08.526Z,30.20
2023-04-28T18:08:38.906Z,30.29
2023-04-28T18:11:09.228Z,30.38
2023-04-28T18:13:36.102Z,30.60
2023-04-28T18:16:04.592Z,30.68
2023-04-28T18:18:35.359Z,30.77
2023-04-28T18:21:02.806Z,30.75
2023-04-28T18:23:30.716Z,30.83
2023-04-28T18:25:57.418Z,30.86
2023-04-28T18:28:24.279Z,31.01
2023-04-28T18:30:51.473Z,30.94
2023-04-28T18:33:23.312Z,31.20
2023-04-28T18:36:06.208Z,31.18
2023-04-28T18:38:36.480Z,31.12
2023-04-28T18:41:19.839Z,31.38
2023-04-28T18:43:46.600Z,31.27
2023-04-28T18:46:13.867Z,31.54
2023-04-28T18:48:40.826Z,31.37
2023-04-28T18:51:07.766Z,31.34
2023-04-28T18:53:36.375Z,31.45
2023-04-28T18:56:03.151Z,31.61
2023-04-28T18:58:30.764Z,31.51
2023-04-28T19:00:57.506Z,31.63
2023-04-28T19:03:24.584Z,31.73
2023-04-28T19:05:51.649Z,31.73
2023-04-28T19:08:18.422Z,31.68
2023-04-28T19:10:45.208Z,31.89
2023-04-28T19:13:12.101Z,31.85
2023-04-28T19:15:40.210Z,31.83
2023-04-28T19:18:07.474Z,31.89
2023-04-28T19:20:34.318Z,31.98
2023-04-28T19:23:01.953Z,31.88
2023-04-28T19:25:31.040Z,31.92
2023-04-28T19:27:57.765Z,31.81
2023-04-28T19:30:24.617Z,32.28
2023-04-28T19:32:51.371Z,32.29
2023-04-28T19:35:19.859Z,32.32
2023-04-28T19:37:46.873Z,32.38
2023-04-28T19:40:19.497Z,32.33
2023-04-28T19:42:46.199Z,32.24
2023-04-28T19:45:12.947Z,32.29
2023-04-28T19:47:39.754Z,32.32
2023-04-28T19:50:09.926Z,32.28
2023-04-28T19:52:36.863Z,32.42
2023-04-28T19:55:04.415Z,32.68
2023-04-28T19:57:32.766Z,32.71
2023-04-28T19:59:59.584Z,33.26
2023-04-28T20:02:26.444Z,33.20
2023-04-28T20:04:53.357Z,33.22
2023-04-28T20:07:20.132Z,33.23
2023-04-28T20:09:47.203Z,33.59
2023-04-28T20:12:15.314Z,33.70
2023-04-28T20:14:42.044Z,34.00
2023-04-28T20:17:10.337Z,34.00
2023-04-28T20:19:37.556Z,34.26
2023-04-28T20:22:08.214Z,34.27
2023-04-28T20:24:36.730Z,34.39
2023-04-28T20:27:04.458Z,34.83
2023-04-28T20:29:34.575Z,34.99
2023-04-28T20:32:04.886Z,35.16
2023-04-28T20:34:32.373Z,35.40
2023-04-28T20:37:03.597Z,34.84
2023-04-28T20:39:30.302Z,35.02
2023-04-28T20:41:57.332Z,34.98
2023-04-28T20:44:24.016Z,34.97
2023-04-28T20:46:50.783Z,34.80
2023-04-28T20:49:18.259Z,34.78
2023-04-28T20:51:48.024Z,34.77
2023-04-28T20:54:17.675Z,34.73
2023-04-28T20:56:45.639Z,34.51
2023-04-28T20:59:12.555Z,34.50
2023-04-28T21:01:41.266Z,34.37
2023-04-28T21:04:09.052Z,34.29
2023-04-28T21:06:36.659Z,34.27
2023-04-28T21:09:03.505Z,34.36
2023-04-28T21:11:30.233Z,34.19
2023-04-28T21:13:57.536Z,34.16
2023-04-28T21:16:24.318Z,34.07
2023-04-28T21:18:51.123Z,34.07
2023-04-28T21:21:18.372Z,34.14
2023-04-28T21:23:45.774Z,34.12
2023-04-28T21:26:12.925Z,34.21
2023-04-28T21:28:40.244Z,34.17
2023-04-28T21:31:07.229Z,34.23
2023-04-28T21:33:34.487Z,34.28
2023-04-28T21:36:08.212Z,34.36
2023-04-28T21:38:39.187Z,34.31
2023-04-28T21:41:07.788Z,34.29
2023-04-28T21:43:36.176Z,34.52
2023-04-28T21:46:04.258Z,34.42
2023-04-28T21:48:31.034Z,34.41
2023-04-28T21:51:00.062Z,34.32
2023-04-28T21:53:28.771Z,34.38
2023-04-28T21:55:55.638Z,34.47
2023-04-28T21:58:22.351Z,34.33
2023-04-28T22:00:49.157Z,34.37
2023-04-28T22:03:16.479Z,34.41
2023-04-28T22:05:46.605Z,34.58
2023-04-28T22:08:13.823Z,34.59
2023-04-28T22:10:40.760Z,34.31
2023-04-28T22:13:07.443Z,34.44
2023-04-28T22:15:34.313Z,34.12
2023-04-28T22:18:01.156Z,34.22
2023-04-28T22:20:28.094Z,34.11
2023-04-28T22:22:55.003Z,33.97
2023-04-28T22:25:22.275Z,34.14
2023-04-28T22:27:49.346Z,33.89
2023-04-28T22:30:16.262Z,33.67
2023-04-28T22:32:47.883Z,33.76
2023-04-28T22:35:16.623Z,33.53
2023-04-28T22:37:43.915Z,33.51
2023-04-28T22:40:11.336Z,33.70
2023-04-28T22:42:41.170Z,33.68
2023-04-28T22:45:09.704Z,33.77
2023-04-28T22:47:37.261Z,33.89
2023-04-28T22:50:06.118Z,33.93
2023-04-28T22:52:33.878Z,34.00
2023-04-28T22:55:00.868Z,34.19
2023-04-28T22:57:27.987Z,34.22
2023-04-28T22:59:54.995Z,34.51
2023-04-28T23:02:23.093Z,34.59
2023-04-28T23:04:50.498Z,34.68
2023-04-28T23:07:18.005Z,34.85
2023-04-28T23:09:44.772Z,34.94
2023-04-28T23:12:12.543Z,35.12
2023-04-28T23:14:39.880Z,35.50
2023-04-28T23:17:06.578Z,35.44
2023-04-28T23:19:39.016Z,35.63
2023-04-28T23:22:09.318Z,35.67
2023-04-28T23:24:37.433Z,35.67
2023-04-28T23:27:04.877Z,35.85
2023-04-28T23:29:32.070Z,35.88
2023-04-28T23:31:58.935Z,35.98
2023-04-28T23:34:25.708Z,36.08
2023-04-28T23:36:52.653Z,36.41
2023-04-28T23:39:19.597Z,36.13
2023-04-28T23:41:46.296Z,36.22
2023-04-28T23:44:13.096Z,36.38
2023-04-28T23:46:39.894Z,36.37
2023-04-28T23:49:06.677Z,36.39
2023-04-28T23:51:33.371Z,36.42
2023-04-28T23:54:00.216Z,36.55
2023-04-28T23:56:27.301Z,36.48
2023-04-28T23:58:54.405Z,36.54
